createdAt,value
2022-11-08T00:01:37.043Z,12.10
2022-11-08T00:04:06.672Z,12.10
2022-11-08T00:06:51.836Z,12.10
2022-11-08T00:09:37.369Z,12.10
2022-11-08T00:12:23.156Z,12.00
2022-11-08T00:14:50.322Z,12.10
2022-11-08T00:17:18.951Z,12.00
2022-11-08T00:19:45.652Z,12.10
2022-11-08T00:22:13.892Z,12.00
2022-11-08T00:24:40.787Z,12.10
2022-11-08T00:27:11.441Z,12.10
2022-11-08T00:29:38.424Z,12.20
2022-11-08T00:32:09.400Z,12.20
2022-11-08T00:34:36.239Z,12.10
2022-11-08T00:37:03.235Z,12.10
2022-11-08T00:39:30.482Z,12.20
2022-11-08T00:41:57.113Z,12.10
2022-11-08T00:44:24.220Z,12.10
2022-11-08T00:46:51.724Z,12.00
2022-11-08T00:49:18.653Z,12.10
2022-11-08T00:51:45.341Z,12.10
2022-11-08T00:54:17.380Z,12.20
2022-11-08T00:56:43.970Z,12.30
2022-11-08T00:59:12.955Z,12.30
2022-11-08T01:01:40.677Z,12.40
2022-11-08T01:04:09.521Z,12.50
2022-11-08T01:06:37.047Z,12.60
2022-11-08T01:09:05.235Z,12.60
2022-11-08T01:11:32.444Z,12.60
2022-11-08T01:14:00.845Z,12.70
2022-11-08T01:16:32.586Z,12.80
2022-11-08T01:18:59.670Z,12.80
2022-11-08T01:21:27.357Z,12.80
2022-11-08T01:23:54.770Z,12.70
2022-11-08T01:26:25.716Z,12.80
2022-11-08T01:28:53.357Z,12.80
2022-11-08T01:31:22.461Z,12.80
2022-11-08T01:33:51.535Z,12.90
2022-11-08T01:36:22.080Z,12.90
2022-11-08T01:38:49.550Z,12.90
2022-11-08T01:41:18.113Z,12.90
2022-11-08T01:43:49.637Z,13.00
2022-11-08T01:46:19.377Z,13.00
2022-11-08T01:48:49.024Z,13.00
2022-11-08T01:51:20.510Z,12.90
2022-11-08T01:53:47.933Z,12.90
2022-11-08T01:56:15.819Z,12.80
2022-11-08T01:58:46.543Z,12.80
2022-11-08T02:01:13.391Z,12.70
2022-11-08T02:03:41.629Z,12.70
2022-11-08T02:06:08.885Z,12.60
2022-11-08T02:08:40.526Z,12.60
2022-11-08T02:11:09.620Z,12.50
2022-11-08T02:13:38.209Z,12.50
2022-11-08T02:16:14.384Z,12.50
2022-11-08T02:18:43.348Z,12.50
2022-11-08T02:21:56.160Z,12.50
2022-11-08T02:24:23.021Z,12.40
2022-11-08T02:26:52.562Z,12.40
2022-11-08T02:29:39.540Z,12.40
2022-11-08T02:32:06.457Z,12.40
2022-11-08T02:34:37.563Z,12.40
2022-11-08T02:37:06.529Z,12.30
2022-11-08T02:39:34.152Z,12.30
2022-11-08T02:42:02.444Z,12.30
2022-11-08T02:44:29.424Z,12.20
2022-11-08T02:46:56.088Z,12.30
2022-11-08T02:49:23.086Z,12.40
2022-11-08T02:51:52.588Z,12.40
2022-11-08T02:54:19.271Z,12.40
2022-11-08T02:56:46.027Z,12.30
2022-11-08T02:59:12.691Z,12.40
2022-11-08T03:01:39.536Z,12.50
2022-11-08T03:04:06.315Z,12.50
2022-11-08T03:06:33.030Z,12.50
2022-11-08T03:08:59.856Z,12.50
2022-11-08T03:11:26.447Z,12.40
2022-11-08T03:13:53.033Z,12.40
2022-11-08T03:16:19.760Z,12.40
2022-11-08T03:18:46.510Z,12.40
2022-11-08T03:21:13.223Z,12.50
2022-11-08T03:23:39.906Z,12.50
2022-11-08T03:26:06.791Z,12.60
2022-11-08T03:28:33.429Z,12.60
2022-11-08T03:31:00.090Z,12.60
2022-11-08T03:33:26.706Z,12.60
2022-11-08T03:35:53.624Z,12.60
2022-11-08T03:38:20.567Z,12.50
2022-11-08T03:40:47.589Z,12.50
2022-11-08T03:43:14.626Z,12.50
2022-11-08T03:45:41.285Z,12.50
2022-11-08T03:48:08.836Z,12.40
2022-11-08T03:50:35.424Z,12.50
2022-11-08T03:53:02.039Z,12.40
2022-11-08T03:55:29.315Z,12.40
2022-11-08T03:57:56.397Z,12.40
2022-11-08T04:00:28.344Z,12.40
2022-11-08T04:02:59.918Z,12.40
2022-11-08T04:05:26.746Z,12.30
2022-11-08T04:07:53.551Z,12.20
2022-11-08T04:10:20.161Z,12.20
2022-11-08T04:13:05.308Z,12.20
2022-11-08T04:15:32.038Z,12.10
2022-11-08T04:18:17.947Z,12.10
2022-11-08T04:21:06.182Z,12.00
2022-11-08T04:23:34.572Z,11.90
2022-11-08T04:26:03.569Z,11.80
2022-11-08T04:28:31.996Z,11.80
2022-11-08T04:31:00.809Z,11.80
2022-11-08T04:33:27.638Z,11.80
2022-11-08T04:35:54.577Z,11.90
2022-11-08T04:38:21.938Z,11.90
2022-11-08T04:40:48.784Z,11.90
2022-11-08T04:43:15.489Z,12.00
2022-11-08T04:45:42.146Z,11.90
2022-11-08T04:48:08.888Z,11.90
2022-11-08T04:50:36.861Z,11.90
2022-11-08T04:53:03.853Z,11.90
2022-11-08T04:55:30.696Z,11.90
2022-11-08T04:57:58.871Z,11.90
2022-11-08T05:00:25.855Z,11.90
2022-11-08T05:02:52.802Z,11.90
2022-11-08T05:05:19.557Z,11.90
2022-11-08T05:07:46.836Z,11.90
2022-11-08T05:10:13.456Z,12.00
2022-11-08T05:12:40.323Z,12.00
2022-11-08T05:15:07.765Z,12.00
2022-11-08T05:17:34.396Z,11.90
2022-11-08T05:20:19.668Z,11.90
2022-11-08T05:23:05.230Z,11.90
2022-11-08T05:25:31.869Z,11.90
2022-11-08T05:27:58.566Z,12.00
2022-11-08T05:30:25.155Z,12.00
2022-11-08T05:32:52.762Z,11.90
2022-11-08T05:35:21.628Z,11.90
2022-11-08T05:37:48.605Z,12.00
2022-11-08T05:40:15.346Z,11.90
2022-11-08T05:42:42.041Z,11.90
2022-11-08T05:45:09.676Z,12.00
2022-11-08T05:47:37.117Z,12.00
2022-11-08T05:50:04.372Z,12.10
2022-11-08T05:52:31.200Z,12.20
2022-11-08T05:54:57.853Z,12.20
2022-11-08T05:57:24.702Z,12.20
2022-11-08T05:59:51.525Z,12.20
2022-11-08T06:02:18.559Z,12.20
2022-11-08T06:04:45.352Z,12.20
2022-11-08T06:07:12.107Z,12.20
2022-11-08T06:09:39.973Z,12.20
2022-11-08T06:12:07.305Z,12.30
2022-11-08T06:14:34.095Z,12.30
2022-11-08T06:17:00.745Z,12.30
2022-11-08T06:19:27.353Z,12.40
2022-11-08T06:21:54.074Z,12.40
2022-11-08T06:24:20.784Z,12.40
2022-11-08T06:26:47.385Z,12.40
2022-11-08T06:29:14.479Z,12.40
2022-11-08T06:31:43.182Z,12.50
2022-11-08T06:34:10.351Z,12.50
2022-11-08T06:36:37.476Z,12.50
2022-11-08T06:39:04.432Z,12.60
2022-11-08T06:41:32.163Z,12.50
2022-11-08T06:43:59.031Z,12.50
2022-11-08T06:46:25.923Z,12.50
2022-11-08T06:48:53.062Z,12.60
2022-11-08T06:51:20.174Z,12.60
2022-11-08T06:53:46.819Z,12.60
2022-11-08T06:56:13.411Z,12.60
2022-11-08T06:58:40.239Z,12.60
2022-11-08T07:01:09.229Z,12.60
2022-11-08T07:03:36.156Z,12.50
2022-11-08T07:06:04.394Z,12.60
2022-11-08T07:08:32.429Z,12.70
2022-11-08T07:10:59.462Z,12.80
2022-11-08T07:13:26.061Z,12.90
2022-11-08T07:15:52.701Z,13.00
2022-11-08T07:18:20.032Z,13.00
2022-11-08T07:20:47.205Z,13.10
2022-11-08T07:23:13.936Z,13.10
2022-11-08T07:25:40.534Z,13.20
2022-11-08T07:28:12.665Z,13.20
2022-11-08T07:30:39.250Z,13.20
2022-11-08T07:33:05.837Z,13.20
2022-11-08T07:35:32.441Z,13.20
2022-11-08T07:37:59.257Z,13.30
2022-11-08T07:40:26.344Z,13.30
2022-11-08T07:45:41.525Z,13.30
2022-11-08T07:48:12.273Z,13.30
2022-11-08T07:50:41.552Z,13.30
2022-11-08T07:53:09.023Z,13.40
2022-11-08T07:55:39.966Z,13.50
2022-11-08T07:58:07.888Z,13.50
2022-11-08T08:00:37.292Z,13.60
2022-11-08T08:03:05.658Z,13.70
2022-11-08T08:05:38.036Z,13.80
2022-11-08T08:08:05.503Z,13.80
2022-11-08T08:10:33.158Z,13.80
2022-11-08T08:13:01.007Z,13.90
2022-11-08T08:15:27.711Z,13.90
2022-11-08T08:17:54.797Z,13.90
2022-11-08T08:20:21.510Z,13.90
2022-11-08T08:22:50.117Z,13.90
2022-11-08T08:25:17.678Z,13.90
2022-11-08T08:27:53.500Z,13.90
2022-11-08T08:30:21.050Z,13.80
2022-11-08T08:33:02.244Z,13.80
2022-11-08T08:35:36.302Z,13.80
2022-11-08T08:38:04.499Z,13.80
2022-11-08T08:40:31.946Z,13.90
2022-11-08T08:43:00.904Z,13.90
2022-11-08T08:45:27.911Z,14.00
2022-11-08T08:47:56.110Z,14.00
2022-11-08T08:50:24.238Z,14.10
2022-11-08T08:52:51.134Z,14.10
2022-11-08T08:55:18.050Z,14.00
2022-11-08T08:57:48.246Z,14.00
2022-11-08T09:03:08.368Z,14.00
2022-11-08T09:05:36.242Z,14.10
2022-11-08T09:08:03.585Z,14.10
2022-11-08T09:10:30.618Z,14.10
2022-11-08T09:12:57.229Z,14.10
2022-11-08T09:15:23.906Z,14.20
2022-11-08T09:17:53.919Z,14.30
2022-11-08T09:20:20.545Z,14.30
2022-11-08T09:22:47.129Z,14.30
2022-11-08T09:25:13.845Z,14.30
2022-11-08T09:27:41.344Z,14.30
2022-11-08T09:30:08.829Z,14.40
2022-11-08T09:32:58.997Z,14.40
2022-11-08T09:35:22.746Z,14.40
2022-11-08T09:37:49.973Z,14.40
2022-11-08T09:40:39.524Z,14.50
2022-11-08T09:43:27.991Z,14.50
2022-11-08T09:45:57.378Z,14.50
2022-11-08T09:48:38.705Z,14.50
2022-11-08T09:51:12.432Z,14.50
2022-11-08T09:53:54.264Z,14.50
2022-11-08T09:56:32.877Z,14.60
2022-11-08T09:59:03.131Z,14.60
2022-11-08T10:01:32.132Z,14.60
2022-11-08T10:04:08.900Z,14.60
2022-11-08T10:06:58.167Z,14.70
2022-11-08T10:09:38.027Z,14.70
2022-11-08T10:12:43.684Z,14.80
2022-11-08T10:15:30.787Z,14.80
2022-11-08T10:18:14.810Z,14.90
2022-11-08T10:21:11.711Z,14.90
2022-11-08T10:23:44.434Z,15.00
2022-11-08T10:26:24.137Z,15.10
2022-11-08T10:29:08.547Z,15.20
2022-11-08T10:31:37.522Z,15.30
2022-11-08T10:34:14.847Z,15.30
2022-11-08T10:36:45.229Z,15.30
2022-11-08T10:39:22.837Z,15.30
2022-11-08T10:42:11.091Z,15.30
2022-11-08T10:44:40.377Z,15.40
2022-11-08T10:47:21.459Z,15.40
2022-11-08T10:49:48.097Z,15.30
2022-11-08T10:52:39.379Z,15.40
2022-11-08T10:55:08.355Z,15.40
2022-11-08T10:57:43.462Z,15.50
2022-11-08T11:00:21.144Z,15.40
2022-11-08T11:02:51.991Z,15.40
2022-11-08T11:05:18.596Z,15.40
2022-11-08T11:08:01.863Z,15.40
2022-11-08T11:10:36.826Z,15.40
2022-11-08T11:13:10.489Z,15.50
2022-11-08T11:15:48.244Z,15.60
2022-11-08T11:18:34.313Z,15.80
2022-11-08T11:21:11.745Z,15.90
2022-11-08T11:24:01.056Z,15.90
2022-11-08T11:26:30.842Z,16.00
2022-11-08T11:29:06.792Z,16.00
2022-11-08T11:31:39.081Z,16.10
2022-11-08T11:34:17.915Z,16.10
2022-11-08T11:36:50.382Z,16.10
2022-11-08T11:39:22.515Z,16.00
2022-11-08T11:42:18.065Z,16.00
2022-11-08T11:45:10.906Z,16.00
2022-11-08T11:47:53.027Z,16.00
2022-11-08T11:50:38.923Z,16.00
2022-11-08T11:53:17.125Z,16.00
2022-11-08T11:56:21.709Z,16.00
2022-11-08T11:58:51.268Z,16.10
2022-11-08T12:01:42.069Z,16.20
2022-11-08T12:04:32.778Z,16.20
2022-11-08T12:07:17.726Z,16.10
2022-11-08T12:09:53.636Z,16.20
2022-11-08T12:12:56.387Z,16.10
2022-11-08T12:15:31.858Z,16.10
2022-11-08T12:18:09.464Z,16.00
2022-11-08T12:21:01.176Z,16.10
2022-11-08T12:23:37.340Z,16.10
2022-11-08T12:26:08.926Z,16.30
2022-11-08T12:29:00.168Z,16.50
2022-11-08T12:31:39.890Z,16.60
2022-11-08T12:34:17.801Z,16.60
2022-11-08T12:36:57.649Z,16.50
2022-11-08T12:39:34.857Z,16.50
2022-11-08T12:42:17.470Z,16.60
2022-11-08T12:45:05.682Z,16.60
2022-11-08T12:47:50.658Z,16.60
2022-11-08T12:50:20.921Z,16.70
2022-11-08T12:52:58.681Z,16.60
2022-11-08T12:55:34.397Z,16.70
2022-11-08T12:58:07.760Z,16.60
2022-11-08T13:00:37.275Z,16.60
2022-11-08T13:03:46.458Z,16.60
2022-11-08T13:06:35.201Z,16.70
2022-11-08T13:09:50.928Z,16.80
2022-11-08T13:12:36.031Z,16.80
2022-11-08T13:15:03.717Z,16.80
2022-11-08T13:17:31.573Z,16.80
2022-11-08T13:20:04.989Z,16.80
2022-11-08T13:22:32.164Z,16.80
2022-11-08T13:24:59.759Z,16.70
2022-11-08T13:27:33.809Z,16.60
2022-11-08T13:30:15.536Z,16.60
2022-11-08T13:32:54.222Z,16.70
2022-11-08T13:35:52.992Z,16.60
2022-11-08T13:38:46.402Z,16.60
2022-11-08T13:41:19.615Z,16.70
2022-11-08T13:43:47.478Z,16.70
2022-11-08T13:46:20.639Z,16.60
2022-11-08T13:49:16.681Z,16.60
2022-11-08T13:51:43.758Z,16.60
2022-11-08T13:54:22.808Z,16.60
2022-11-08T13:56:53.709Z,16.60
2022-11-08T13:59:32.754Z,16.70
2022-11-08T14:02:03.383Z,16.60
2022-11-08T14:04:38.715Z,16.60
2022-11-08T14:07:13.177Z,16.60
2022-11-08T14:10:14.071Z,16.60
2022-11-08T14:12:58.031Z,16.60
2022-11-08T14:15:27.576Z,16.60
2022-11-08T14:18:04.971Z,16.50
2022-11-08T14:20:43.740Z,16.60
2022-11-08T14:23:19.629Z,16.50
2022-11-08T14:26:00.510Z,16.50
2022-11-08T14:28:31.065Z,16.50
2022-11-08T14:30:59.727Z,16.50
2022-11-08T14:33:28.686Z,16.40
2022-11-08T14:35:58.912Z,16.50
2022-11-08T14:38:27.318Z,16.50
2022-11-08T14:41:00.783Z,16.50
2022-11-08T14:43:28.578Z,16.50
2022-11-08T14:45:58.041Z,16.50
2022-11-08T14:48:27.614Z,16.50
2022-11-08T14:51:02.505Z,16.50
2022-11-08T14:53:31.785Z,16.40
2022-11-08T14:56:03.208Z,16.40
2022-11-08T14:58:30.534Z,16.30
2022-11-08T15:00:58.925Z,16.20
2022-11-08T15:03:28.712Z,16.20
2022-11-08T15:06:00.817Z,16.20
2022-11-08T15:08:33.906Z,16.10
2022-11-08T15:11:03.800Z,16.00
2022-11-08T15:13:38.458Z,16.00
2022-11-08T15:16:06.590Z,16.00
2022-11-08T15:18:43.156Z,16.00
2022-11-08T15:21:13.720Z,16.00
2022-11-08T15:23:53.444Z,15.90
2022-11-08T15:26:21.488Z,15.90
2022-11-08T15:29:26.573Z,15.80
2022-11-08T15:32:01.216Z,15.80
2022-11-08T15:34:37.291Z,15.80
2022-11-08T15:37:29.089Z,15.80
2022-11-08T15:39:56.462Z,15.70
2022-11-08T15:42:23.485Z,15.70
2022-11-08T15:45:21.875Z,15.70
2022-11-08T15:47:49.880Z,15.60
2022-11-08T15:50:20.538Z,15.60
2022-11-08T15:52:52.451Z,15.50
2022-11-08T15:55:24.072Z,15.50
2022-11-08T15:57:50.949Z,15.40
2022-11-08T16:00:24.292Z,15.40
2022-11-08T16:02:52.083Z,15.30
2022-11-08T16:05:22.630Z,15.20
2022-11-08T16:07:50.426Z,15.30
2022-11-08T16:10:20.009Z,15.20
2022-11-08T16:12:47.754Z,15.10
2022-11-08T16:15:17.112Z,15.10
2022-11-08T16:18:42.142Z,15.00
2022-11-08T16:21:15.769Z,15.00
2022-11-08T16:23:42.602Z,15.00
2022-11-08T16:26:16.666Z,15.00
2022-11-08T16:28:44.427Z,15.00
2022-11-08T16:31:14.281Z,15.00
2022-11-08T16:33:43.089Z,14.90
2022-11-08T16:36:19.908Z,15.00
2022-11-08T16:38:52.752Z,14.90
2022-11-08T16:41:20.744Z,15.00
2022-11-08T16:43:47.935Z,15.00
2022-11-08T16:46:15.668Z,15.10
2022-11-08T16:48:47.662Z,15.10
2022-11-08T16:51:18.762Z,15.10
2022-11-08T16:53:46.470Z,15.00
2022-11-08T16:56:13.577Z,15.00
2022-11-08T16:58:40.958Z,15.00
2022-11-08T17:01:12.054Z,15.10
2022-11-08T17:03:38.846Z,15.00
2022-11-08T17:06:06.030Z,15.00
2022-11-08T17:08:32.757Z,14.90
2022-11-08T17:11:01.229Z,14.80
2022-11-08T17:13:27.947Z,14.80
2022-11-08T17:15:55.338Z,14.80
2022-11-08T17:18:22.335Z,14.70
2022-11-08T17:20:49.426Z,14.80
2022-11-08T17:23:16.455Z,14.70
2022-11-08T17:25:44.396Z,14.80
2022-11-08T17:28:12.440Z,14.80
2022-11-08T17:30:44.106Z,14.70
2022-11-08T17:33:12.905Z,14.70
2022-11-08T17:35:43.984Z,14.80
2022-11-08T17:38:10.810Z,14.80
2022-11-08T17:40:37.575Z,14.70
2022-11-08T17:43:04.321Z,14.70
2022-11-08T17:45:31.038Z,14.80
2022-11-08T17:48:09.718Z,14.80
2022-11-08T17:50:36.434Z,14.80
2022-11-08T17:53:03.221Z,14.80
2022-11-08T17:55:29.806Z,14.80
2022-11-08T17:57:56.610Z,14.80
2022-11-08T18:00:28.327Z,14.80
2022-11-08T18:02:58.270Z,14.70
2022-11-08T18:05:24.969Z,14.80
2022-11-08T18:07:51.727Z,14.70
2022-11-08T18:10:18.365Z,14.70
2022-11-08T18:12:45.008Z,14.70
2022-11-08T18:15:14.572Z,14.60
2022-11-08T18:17:41.265Z,14.60
2022-11-08T18:20:08.591Z,14.60
2022-11-08T18:22:35.355Z,14.50
2022-11-08T18:25:01.948Z,14.60
2022-11-08T18:27:28.957Z,14.50
2022-11-08T18:29:55.567Z,14.50
2022-11-08T18:32:22.163Z,14.50
2022-11-08T18:34:48.987Z,14.50
2022-11-08T18:37:15.844Z,14.50
2022-11-08T18:39:42.725Z,14.50
2022-11-08T18:42:09.493Z,14.60
2022-11-08T18:44:36.115Z,14.50
2022-11-08T18:47:02.975Z,14.50
2022-11-08T18:49:29.551Z,14.50
2022-11-08T18:51:57.440Z,14.50
2022-11-08T18:54:24.203Z,14.40
2022-11-08T18:56:50.952Z,14.40
2022-11-08T18:59:17.692Z,14.40
2022-11-08T19:01:44.472Z,14.40
2022-11-08T19:04:11.080Z,14.40
2022-11-08T19:06:37.915Z,14.40
2022-11-08T19:09:04.710Z,14.40
2022-11-08T19:11:31.499Z,14.40
2022-11-08T19:13:59.513Z,14.40
2022-11-08T19:16:26.168Z,14.40
2022-11-08T19:18:52.902Z,14.40
2022-11-08T19:21:25.586Z,14.30
2022-11-08T19:23:55.950Z,14.30
2022-11-08T19:26:25.539Z,14.30
2022-11-08T19:28:55.187Z,14.30
2022-11-08T19:31:24.323Z,14.40
2022-11-08T19:33:53.660Z,14.20
2022-11-08T19:36:22.971Z,14.20
2022-11-08T19:38:50.219Z,14.20
2022-11-08T19:41:20.121Z,14.20
2022-11-08T19:43:47.429Z,14.20
2022-11-08T19:46:17.228Z,14.20
2022-11-08T19:48:45.606Z,14.20
2022-11-08T19:51:15.025Z,14.20
2022-11-08T19:53:45.193Z,14.20
2022-11-08T19:56:15.379Z,14.20
2022-11-08T19:58:42.321Z,14.20
2022-11-08T20:01:11.545Z,14.20
2022-11-08T20:03:39.427Z,14.20
2022-11-08T20:06:07.300Z,14.20
2022-11-08T20:08:34.513Z,14.10
2022-11-08T20:11:01.500Z,14.20
2022-11-08T20:13:28.189Z,14.20
2022-11-08T20:15:54.785Z,14.20
2022-11-08T20:18:21.684Z,14.10
2022-11-08T20:20:48.456Z,14.10
2022-11-08T20:23:16.740Z,14.10
2022-11-08T20:25:43.431Z,14.20
2022-11-08T20:28:10.189Z,14.20
2022-11-08T20:30:38.970Z,14.20
2022-11-08T20:33:05.558Z,14.20
2022-11-08T20:35:34.997Z,14.20
2022-11-08T20:38:01.704Z,14.30
2022-11-08T20:40:28.326Z,14.20
2022-11-08T20:42:55.148Z,14.20
2022-11-08T20:45:21.800Z,14.30
2022-11-08T20:47:48.601Z,14.40
2022-11-08T20:50:15.597Z,14.50
2022-11-08T20:52:42.195Z,14.50
2022-11-08T20:55:09.197Z,14.60
2022-11-08T20:57:35.871Z,14.60
2022-11-08T21:00:13.149Z,14.70
2022-11-08T21:02:40.329Z,14.80
2022-11-08T21:05:07.272Z,14.80
2022-11-08T21:10:41.372Z,15.00
2022-11-08T21:13:07.407Z,14.90
2022-11-08T21:15:34.171Z,14.90
2022-11-08T21:18:01.085Z,14.90
2022-11-08T21:20:28.217Z,14.90
2022-11-08T21:22:56.012Z,14.90
2022-11-08T21:25:23.116Z,14.90
2022-11-08T21:27:49.836Z,14.90
2022-11-08T21:30:16.768Z,15.00
2022-11-08T21:32:43.487Z,14.90
2022-11-08T21:35:10.161Z,14.80
2022-11-08T21:37:36.982Z,14.80
2022-11-08T21:40:04.170Z,14.70
2022-11-08T21:42:34.219Z,14.60
2022-11-08T21:45:05.504Z,14.60
2022-11-08T21:47:32.349Z,14.60
2022-11-08T21:49:59.097Z,14.60
2022-11-08T21:52:25.779Z,14.50
2022-11-08T21:54:52.442Z,14.60
2022-11-08T21:57:19.176Z,14.50
2022-11-08T21:59:45.855Z,14.40
2022-11-08T22:02:12.522Z,14.50
2022-11-08T22:04:39.247Z,14.40
2022-11-08T22:07:06.095Z,14.40
2022-11-08T22:09:32.997Z,14.30
2022-11-08T22:11:59.723Z,14.30
2022-11-08T22:14:26.335Z,14.30
2022-11-08T22:16:53.132Z,14.40
2022-11-08T22:19:19.793Z,14.30
2022-11-08T22:21:47.450Z,14.30
2022-11-08T22:24:17.993Z,14.30
2022-11-08T22:26:45.190Z,14.20
2022-11-08T22:29:12.343Z,14.20
2022-11-08T22:31:39.728Z,14.20
2022-11-08T22:34:08.400Z,14.20
2022-11-08T22:36:38.692Z,14.20
2022-11-08T22:39:09.690Z,14.10
2022-11-08T22:41:36.364Z,14.10
2022-11-08T22:44:06.250Z,14.10
2022-11-08T22:46:36.655Z,14.00
2022-11-08T22:49:03.601Z,14.10
2022-11-08T22:51:30.374Z,14.20
2022-11-08T22:53:57.075Z,14.20
2022-11-08T22:56:23.739Z,14.10
2022-11-08T22:58:50.423Z,14.10
2022-11-08T23:01:17.150Z,14.10
2022-11-08T23:03:47.746Z,14.10
2022-11-08T23:06:15.713Z,14.10
2022-11-08T23:08:42.882Z,14.10
2022-11-08T23:11:28.465Z,14.10
2022-11-08T23:14:13.980Z,14.00
2022-11-08T23:16:44.890Z,14.00
2022-11-08T23:19:39.000Z,14.00
2022-11-08T23:22:28.320Z,14.00
2022-11-08T23:24:55.065Z,14.00
2022-11-08T23:27:40.472Z,13.90
2022-11-08T23:30:26.704Z,13.90
2022-11-08T23:32:53.452Z,13.90
2022-11-08T23:35:21.123Z,14.00
2022-11-08T23:37:48.333Z,13.90
2022-11-08T23:40:34.315Z,14.00
2022-11-08T23:43:25.556Z,14.00
2022-11-08T23:45:52.211Z,14.10
2022-11-08T23:48:19.072Z,14.10
2022-11-08T23:50:50.836Z,14.10
2022-11-08T23:53:19.004Z,14.20
2022-11-08T23:55:45.869Z,14.20
2022-11-08T23:58:13.856Z,14.20
